Time;durP1;ratioP1;P1;durP2;ratioP2;P2;SDS_P1;SDS_P2;PMS_P1;PMS_P2;Temp;Humidity;BMP_temperature;BMP_pressure;BME280_temperature;BME280_humidity;BME280_pressure;Samples;Min_cycle;Max_cycle;Signal;HPM_P1;HPM_P2
2024/02/15 00:00:37;;;;;;;1.85;0.70;;;9.90;99.90;;;;;;4935283;29;20430;-80
2024/02/15 00:03:06;;;;;;;1.38;1.27;;;9.90;99.90;;;;;;4938585;29;20050;-78
2024/02/15 00:05:36;;;;;;;1.75;0.85;;;9.90;99.90;;;;;;4919381;29;20070;-79
2024/02/15 00:08:03;;;;;;;0.63;0.63;;;9.90;99.90;;;;;;4912370;29;20055;-79
2024/02/15 00:10:29;;;;;;;0.82;0.82;;;9.90;99.90;;;;;;4948087;29;20032;-77
2024/02/15 00:12:55;;;;;;;0.98;0.88;;;9.90;99.90;;;;;;4935122;29;20406;-78
2024/02/15 00:15:21;;;;;;;1.52;1.42;;;9.90;99.90;;;;;;4933285;29;20510;-78
2024/02/15 00:17:48;;;;;;;0.60;0.60;;;9.90;99.90;;;;;;4936344;29;20071;-78
2024/02/15 00:20:16;;;;;;;0.77;0.75;;;9.90;99.90;;;;;;4945319;28;20046;-80
2024/02/15 00:22:42;;;;;;;0.77;0.77;;;9.90;99.90;;;;;;4934194;29;20039;-77
2024/02/15 00:25:08;;;;;;;1.10;0.55;;;9.90;99.90;;;;;;4954222;29;20050;-76
2024/02/15 00:27:35;;;;;;;0.30;0.30;;;9.90;99.90;;;;;;4947928;28;20046;-79
2024/02/15 00:30:05;;;;;;;2.20;1.80;;;9.80;99.90;;;;;;4920597;29;20040;-79
2024/02/15 00:32:31;;;;;;;0.90;0.60;;;9.80;99.90;;;;;;4924614;29;20043;-78
2024/02/15 00:34:57;;;;;;;1.02;0.95;;;9.80;99.90;;;;;;4940021;29;20398;-78
2024/02/15 00:37:23;;;;;;;2.10;1.20;;;9.80;99.90;;;;;;4914669;29;20051;-79
2024/02/15 00:39:49;;;;;;;27.48;2.63;;;9.80;99.90;;;;;;4944854;28;20039;-79
2024/02/15 00:42:16;;;;;;;1.08;0.98;;;9.70;99.90;;;;;;4943657;29;20385;-82
2024/02/15 00:44:42;;;;;;;0.82;0.80;;;9.70;99.90;;;;;;4922940;29;20088;-79
2024/02/15 00:47:12;;;;;;;1.35;0.57;;;9.70;99.90;;;;;;4934155;29;20063;-78
2024/02/15 00:49:39;;;;;;;0.75;0.63;;;9.70;99.90;;;;;;4946614;29;20063;-79
2024/02/15 00:52:05;;;;;;;1.45;1.13;;;9.70;99.90;;;;;;4934587;29;20448;-80
2024/02/15 00:54:31;;;;;;;0.60;0.60;;;9.70;99.90;;;;;;4917771;29;20051;-78
2024/02/15 00:56:58;;;;;;;0.88;0.77;;;9.70;99.90;;;;;;4950503;29;20048;-78
2024/02/15 00:59:24;;;;;;;0.70;0.70;;;9.70;99.90;;;;;;4932895;29;20409;-78
2024/02/15 01:01:50;;;;;;;0.30;0.30;;;9.70;99.90;;;;;;4919865;29;20130;-79
2024/02/15 01:04:16;;;;;;;0.98;0.63;;;9.80;99.90;;;;;;4937653;29;20035;-79
2024/02/15 01:06:43;;;;;;;0.43;0.43;;;9.70;99.90;;;;;;4943770;29;20048;-79
2024/02/15 01:09:09;;;;;;;0.57;0.47;;;9.70;99.90;;;;;;4943315;29;20031;-79
2024/02/15 01:11:36;;;;;;;0.80;0.65;;;9.70;99.90;;;;;;4938692;28;20060;-79
2024/02/15 01:14:03;;;;;;;1.23;0.80;;;9.70;99.90;;;;;;4935927;29;20058;-79
2024/02/15 01:16:29;;;;;;;0.40;0.40;;;9.70;99.90;;;;;;4938928;29;20366;-79
2024/02/15 01:18:55;;;;;;;0.52;0.52;;;9.70;99.90;;;;;;4932030;29;20043;-78
2024/02/15 01:21:22;;;;;;;0.50;0.50;;;9.80;99.90;;;;;;4934341;29;20047;-79
2024/02/15 01:23:48;;;;;;;0.75;0.50;;;9.70;99.90;;;;;;4940605;29;20035;-79
2024/02/15 01:26:14;;;;;;;0.75;0.75;;;9.80;99.90;;;;;;4934956;29;20063;-79
2024/02/15 01:28:43;;;;;;;0.22;0.20;;;9.70;99.90;;;;;;4954404;29;20047;-78
2024/02/15 01:31:10;;;;;;;0.40;0.40;;;9.70;99.90;;;;;;4943953;29;20055;-77
2024/02/15 01:33:37;;;;;;;1.55;1.08;;;9.80;99.90;;;;;;4938953;29;20173;-77
2024/02/15 01:36:04;;;;;;;0.35;0.28;;;9.80;99.90;;;;;;4927006;29;20040;-77
2024/02/15 01:38:31;;;;;;;0.22;0.22;;;9.80;99.90;;;;;;4950932;29;20043;-78
2024/02/15 01:40:57;;;;;;;0.17;0.17;;;9.80;99.90;;;;;;4940909;29;20054;-78
2024/02/15 01:43:23;;;;;;;1.42;1.10;;;9.80;99.90;;;;;;4934404;29;20035;-78
2024/02/15 01:45:49;;;;;;;0.57;0.55;;;9.70;99.90;;;;;;4936636;29;20354;-79
2024/02/15 01:48:16;;;;;;;0.28;0.28;;;9.70;99.90;;;;;;4924179;29;20369;-79
2024/02/15 01:50:42;;;;;;;0.73;0.73;;;9.70;99.90;;;;;;4944428;29;20046;-80
2024/02/15 01:53:10;;;;;;;0.65;0.65;;;9.70;99.90;;;;;;4947782;28;20099;-79
2024/02/15 01:55:38;;;;;;;0.30;0.30;;;9.70;99.90;;;;;;4942631;29;20508;-79
2024/02/15 01:58:04;;;;;;;0.57;0.57;;;9.70;99.90;;;;;;4932721;29;20362;-80
2024/02/15 02:00:31;;;;;;;3.30;1.30;;;9.70;99.90;;;;;;4926950;29;20036;-79
2024/02/15 02:03:02;;;;;;;0.73;0.63;;;9.70;99.90;;;;;;4935592;29;20377;-79
2024/02/15 02:05:30;;;;;;;0.52;0.47;;;9.70;99.90;;;;;;4941705;28;20477;-79
2024/02/15 02:07:59;;;;;;;1.05;0.95;;;9.80;99.90;;;;;;4942554;29;20046;-79
2024/02/15 02:10:27;;;;;;;0.65;0.65;;;9.80;99.90;;;;;;4933946;29;20393;-79
2024/02/15 02:12:53;;;;;;;0.45;0.45;;;9.80;99.90;;;;;;4928051;29;20051;-79
2024/02/15 02:15:19;;;;;;;0.40;0.40;;;9.80;99.90;;;;;;4915208;29;20405;-79
2024/02/15 02:17:50;;;;;;;0.30;0.30;;;9.80;99.90;;;;;;4943075;29;20038;-79
2024/02/15 02:20:17;;;;;;;0.30;0.30;;;9.80;99.90;;;;;;4940471;29;20398;-80
2024/02/15 02:22:48;;;;;;;0.38;0.38;;;9.80;99.90;;;;;;4942479;29;20031;-78
2024/02/15 02:25:14;;;;;;;;;;;9.80;99.90;;;;;;4946364;29;20040;-78
2024/02/15 02:27:40;;;;;;;0.70;0.68;;;9.80;99.90;;;;;;4936024;29;19919;-78
2024/02/15 02:30:19;;;;;;;4.90;1.33;;;9.80;99.90;;;;;;4940831;29;20058;-78
2024/02/15 02:32:48;;;;;;;1.35;1.20;;;9.80;99.90;;;;;;4936733;29;20047;-79
2024/02/15 02:35:15;;;;;;;2.10;0.55;;;9.80;99.90;;;;;;4934372;29;20036;-78
2024/02/15 02:37:42;;;;;;;0.38;0.38;;;9.80;99.90;;;;;;4934352;29;20039;-78
2024/02/15 02:40:09;;;;;;;0.40;0.40;;;9.70;99.90;;;;;;4940138;29;20031;-79
2024/02/15 02:42:51;;;;;;;0.65;0.60;;;9.70;99.90;;;;;;4940716;29;20051;-79
2024/02/15 02:45:19;;;;;;;0.17;0.17;;;9.70;99.90;;;;;;4944134;29;20039;-79
2024/02/15 02:47:49;;;;;;;1.40;1.30;;;9.70;99.90;;;;;;4929937;29;20043;-78
2024/02/15 02:50:16;;;;;;;0.82;0.82;;;9.70;99.90;;;;;;4931620;29;20040;-79
2024/02/15 02:52:42;;;;;;;0.50;0.50;;;9.70;99.90;;;;;;4938437;28;20027;-78
2024/02/15 02:55:08;;;;;;;14.60;1.30;;;9.60;99.90;;;;;;4927385;29;20048;-78
2024/02/15 02:57:38;;;;;;;0.52;0.52;;;9.60;99.90;;;;;;4948365;29;20050;-78
2024/02/15 03:00:14;;;;;;;0.95;0.63;;;9.60;99.90;;;;;;4944571;29;20034;-79
2024/02/15 03:02:45;;;;;;;0.75;0.75;;;9.60;99.90;;;;;;4931523;29;20047;-78
2024/02/15 03:05:12;;;;;;;0.20;0.20;;;9.60;99.90;;;;;;4921520;29;20043;-77
2024/02/15 03:07:42;;;;;;;0.10;0.10;;;9.60;99.90;;;;;;4931439;29;20063;-77
2024/02/15 03:10:13;;;;;;;2.65;0.93;;;9.60;99.90;;;;;;4916393;29;20043;-78
2024/02/15 03:12:40;;;;;;;0.28;0.28;;;9.60;99.90;;;;;;4932631;29;20054;-78
2024/02/15 03:15:11;;;;;;;1.67;1.45;;;9.60;99.90;;;;;;4919109;29;20051;-77
2024/02/15 03:17:42;;;;;;;0.63;0.63;;;9.60;99.90;;;;;;4948062;28;20090;-77
2024/02/15 03:20:28;;;;;;;1.65;0.90;;;9.60;99.90;;;;;;4937906;29;20043;-77
2024/02/15 03:22:56;;;;;;;0.30;0.30;;;9.60;99.90;;;;;;4925882;29;20401;-77
2024/02/15 03:25:26;;;;;;;11.63;1.63;;;9.60;99.90;;;;;;4911732;29;20052;-77
2024/02/15 03:27:53;;;;;;;0.75;0.75;;;9.60;99.90;;;;;;4930788;29;20050;-78
2024/02/15 03:30:20;;;;;;;1.15;0.90;;;9.60;99.90;;;;;;4937818;29;20039;-78
2024/02/15 03:32:48;;;;;;;0.35;0.35;;;9.60;99.90;;;;;;4929890;29;20055;-78
2024/02/15 03:35:15;;;;;;;1.13;1.00;;;9.60;99.90;;;;;;4935989;29;20039;-78
2024/02/15 03:37:41;;;;;;;1.17;1.10;;;9.60;99.90;;;;;;4934426;29;20035;-77
2024/02/15 03:40:09;;;;;;;0.73;0.73;;;9.60;99.90;;;;;;4937928;29;20055;-77
2024/02/15 03:42:38;;;;;;;6.75;2.00;;;9.60;99.90;;;;;;4938497;29;20038;-78
2024/02/15 03:45:06;;;;;;;0.70;0.70;;;9.60;99.90;;;;;;4927796;29;20036;-78
2024/02/15 03:47:35;;;;;;;0.88;0.88;;;9.60;99.90;;;;;;4940233;29;20401;-78
2024/02/15 03:50:05;;;;;;;0.82;0.82;;;9.50;99.90;;;;;;4932274;29;20039;-78
2024/02/15 03:52:32;;;;;;;1.33;0.57;;;9.50;99.90;;;;;;4935788;29;20043;-78
2024/02/15 03:54:59;;;;;;;3.25;0.93;;;9.50;99.90;;;;;;4930037;29;20287;-78
2024/02/15 03:57:26;;;;;;;1.17;1.00;;;9.50;99.90;;;;;;4938767;29;20039;-78
2024/02/15 03:59:57;;;;;;;2.40;0.93;;;9.50;99.90;;;;;;4936837;29;20047;-78
2024/02/15 04:02:26;;;;;;;;;;;9.60;99.90;;;;;;4951270;28;20039;-78
2024/02/15 04:04:54;;;;;;;0.98;0.98;;;9.60;99.90;;;;;;4934176;29;19915;-78
2024/02/15 04:07:22;;;;;;;1.58;1.17;;;9.60;99.90;;;;;;4933035;29;20055;-78
2024/02/15 04:09:49;;;;;;;0.80;0.80;;;9.60;99.90;;;;;;4936670;29;20039;-78
2024/02/15 04:12:16;;;;;;;0.68;0.55;;;9.60;99.90;;;;;;4939945;29;20465;-78
2024/02/15 04:14:46;;;;;;;0.20;0.20;;;9.60;99.90;;;;;;4930267;29;20048;-78
2024/02/15 04:17:16;;;;;;;0.40;0.40;;;9.60;99.90;;;;;;4925793;29;20046;-77
2024/02/15 04:19:45;;;;;;;0.20;0.20;;;9.60;99.90;;;;;;4938643;29;20035;-78
2024/02/15 04:22:11;;;;;;;0.20;0.20;;;9.60;99.90;;;;;;4945483;29;20142;-78
2024/02/15 04:24:40;;;;;;;0.65;0.65;;;9.60;99.90;;;;;;4949145;29;20461;-78
2024/02/15 04:27:11;;;;;;;0.25;0.25;;;9.60;99.90;;;;;;4943751;29;20054;-78
2024/02/15 04:29:40;;;;;;;0.20;0.20;;;9.60;99.90;;;;;;4937736;29;20040;-78
2024/02/15 04:32:09;;;;;;;0.95;0.55;;;9.70;99.90;;;;;;4953947;29;20031;-78
2024/02/15 04:34:36;;;;;;;0.63;0.28;;;9.70;99.90;;;;;;4949768;28;20036;-77
2024/02/15 04:37:06;;;;;;;0.32;0.32;;;9.70;99.90;;;;;;4934148;29;20048;-77
2024/02/15 04:39:33;;;;;;;0.30;0.30;;;9.70;99.90;;;;;;4939522;29;20039;-79
2024/02/15 04:42:00;;;;;;;0.30;0.30;;;9.60;99.90;;;;;;4940417;28;20293;-79
2024/02/15 04:44:28;;;;;;;0.95;0.68;;;9.70;99.90;;;;;;4936871;29;20031;-78
2024/02/15 04:46:55;;;;;;;0.22;0.22;;;9.70;99.90;;;;;;4919793;29;20051;-78
2024/02/15 04:49:22;;;;;;;0.47;0.43;;;9.70;99.90;;;;;;4925755;29;20051;-78
2024/02/15 04:51:48;;;;;;;0.22;0.22;;;9.70;99.90;;;;;;4937752;29;20050;-77
2024/02/15 04:54:15;;;;;;;0.35;0.35;;;9.60;99.90;;;;;;4915988;29;20048;-77
2024/02/15 04:56:42;;;;;;;0.20;0.20;;;9.70;99.90;;;;;;4944987;28;20041;-77
2024/02/15 04:59:14;;;;;;;0.25;0.25;;;9.70;99.90;;;;;;4935737;29;20046;-78
2024/02/15 05:01:44;;;;;;;0.77;0.77;;;9.70;99.90;;;;;;4933152;29;20043;-77
2024/02/15 05:04:11;;;;;;;0.32;0.32;;;9.60;99.90;;;;;;4946091;29;20054;-78
2024/02/15 05:06:38;;;;;;;1.20;1.10;;;9.60;99.90;;;;;;4948924;29;20043;-77
2024/02/15 05:09:10;;;;;;;0.45;0.43;;;9.60;99.90;;;;;;4919361;29;20066;-78
2024/02/15 05:11:46;;;;;;;0.82;0.68;;;9.70;99.90;;;;;;4932140;28;20043;-78
2024/02/15 05:14:18;;;;;;;0.60;0.60;;;9.60;99.90;;;;;;4932139;29;20378;-78
2024/02/15 05:16:47;;;;;;;5.72;0.50;;;9.70;99.90;;;;;;4945679;29;20043;-78
2024/02/15 05:19:17;;;;;;;0.50;0.50;;;9.70;99.90;;;;;;4914115;29;20466;-78
2024/02/15 05:21:47;;;;;;;1.25;0.82;;;9.70;99.90;;;;;;4926780;29;20392;-77
2024/02/15 05:24:14;;;;;;;0.40;0.40;;;9.70;99.90;;;;;;4932950;29;20048;-78
2024/02/15 05:26:42;;;;;;;0.30;0.30;;;9.60;99.90;;;;;;4931638;29;20046;-77
2024/02/15 05:29:11;;;;;;;0.25;0.25;;;9.60;99.90;;;;;;4935514;29;20063;-78
2024/02/15 05:31:37;;;;;;;0.80;0.28;;;9.60;99.90;;;;;;4924819;29;20047;-79
2024/02/15 05:34:11;;;;;;;0.30;0.30;;;9.60;99.90;;;;;;4907841;29;20044;-78
2024/02/15 05:36:38;;;;;;;0.65;0.65;;;9.60;99.90;;;;;;4933428;29;20112;-79
2024/02/15 05:39:07;;;;;;;1.40;1.33;;;9.60;99.90;;;;;;4934042;29;20058;-78
2024/02/15 05:41:34;;;;;;;0.77;0.63;;;9.60;99.90;;;;;;4943869;28;20035;-81
2024/02/15 05:44:01;;;;;;;1.65;1.23;;;9.60;99.90;;;;;;4939764;29;20040;-78
2024/02/15 05:46:30;;;;;;;0.73;0.73;;;9.60;99.90;;;;;;4922422;29;20039;-79
2024/02/15 05:48:56;;;;;;;1.17;1.08;;;9.60;99.90;;;;;;4949211;28;20051;-79
2024/02/15 05:51:23;;;;;;;0.90;0.80;;;9.60;99.90;;;;;;4933485;29;20031;-80
2024/02/15 05:53:49;;;;;;;0.60;0.60;;;9.60;99.90;;;;;;4913551;29;20044;-78
2024/02/15 05:56:16;;;;;;;0.45;0.45;;;9.60;99.90;;;;;;4932864;29;20070;-78
2024/02/15 05:58:43;;;;;;;1.00;0.88;;;9.60;99.90;;;;;;4948541;29;20031;-80
2024/02/15 06:01:11;;;;;;;0.73;0.65;;;9.60;99.90;;;;;;4942107;29;20042;-79
2024/02/15 06:03:38;;;;;;;0.50;0.50;;;9.70;99.90;;;;;;4941391;29;20036;-79
2024/02/15 06:06:08;;;;;;;0.75;0.73;;;9.70;99.90;;;;;;4942252;29;20469;-77
2024/02/15 06:08:35;;;;;;;2.83;1.30;;;9.70;99.90;;;;;;4911814;29;20070;-79
2024/02/15 06:11:02;;;;;;;0.55;0.55;;;9.70;99.90;;;;;;4936551;29;20035;-79
2024/02/15 06:13:28;;;;;;;1.00;0.65;;;9.70;99.90;;;;;;4928234;29;20062;-79
2024/02/15 06:15:54;;;;;;;1.38;1.27;;;9.70;99.90;;;;;;4931118;29;20377;-79
2024/02/15 06:18:24;;;;;;;3.85;0.98;;;9.70;99.90;;;;;;4917762;29;20480;-79
2024/02/15 06:20:51;;;;;;;0.43;0.43;;;9.70;99.90;;;;;;4929829;29;20054;-79
2024/02/15 06:23:18;;;;;;;0.68;0.63;;;9.70;99.90;;;;;;4926155;29;20473;-79
2024/02/15 06:25:45;;;;;;;0.88;0.88;;;9.70;99.90;;;;;;4954076;29;20047;-80
2024/02/15 06:41:56;;;;;;;0.55;0.55;;;9.70;99.90;;;;;;4939300;29;20043;-79
2024/02/15 06:44:24;;;;;;;0.40;0.40;;;9.70;99.90;;;;;;4927053;29;20596;-80
2024/02/15 06:46:50;;;;;;;0.63;0.35;;;9.80;99.90;;;;;;4947374;29;20027;-80
2024/02/15 06:49:17;;;;;;;0.10;0.10;;;9.80;99.90;;;;;;4936693;29;20039;-80
2024/02/15 06:51:43;;;;;;;0.80;0.47;;;9.80;99.90;;;;;;4931968;29;20042;-81
2024/02/15 06:54:11;;;;;;;0.75;0.75;;;9.80;89.60;;;;;;4923498;29;20058;-80
2024/02/15 06:56:39;;;;;;;0.17;0.17;;;9.80;32.30;;;;;;4929987;29;20043;-80
2024/02/15 06:59:07;;;;;;;0.95;0.90;;;9.90;4.70;;;;;;4924025;29;20499;-80
2024/02/15 07:01:38;;;;;;;0.10;0.10;;;9.90;1.00;;;;;;4914419;29;20040;-80
2024/02/15 07:04:04;;;;;;;1.45;1.35;;;9.90;1.00;;;;;;4937248;29;20500;-80
2024/02/15 07:06:31;;;;;;;0.22;0.22;;;9.90;1.00;;;;;;4927537;29;20468;-79
2024/02/15 07:08:57;;;;;;;0.55;0.55;;;10.00;1.00;;;;;;4928502;29;20047;-81
2024/02/15 07:11:30;;;;;;;0.50;0.50;;;10.00;1.00;;;;;;4941366;29;20032;-80
2024/02/15 07:13:58;;;;;;;1.85;1.50;;;10.00;1.00;;;;;;4952689;29;20059;-80
2024/02/15 07:16:24;;;;;;;1.10;1.00;;;10.00;1.00;;;;;;4922056;29;20043;-80
2024/02/15 07:18:51;;;;;;;2.97;1.27;;;10.10;1.00;;;;;;4932515;29;20040;-80
2024/02/15 07:21:21;;;;;;;1.08;0.70;;;10.10;1.00;;;;;;4935575;29;20380;-81
2024/02/15 07:23:47;;;;;;;0.68;0.68;;;10.10;99.90;;;;;;4934928;29;20031;-81
2024/02/15 07:26:15;;;;;;;1.58;1.48;;;10.10;99.90;;;;;;4936688;29;20040;-82
2024/02/15 07:28:41;;;;;;;0.45;0.45;;;10.20;99.90;;;;;;4934629;29;20480;-82
2024/02/15 07:31:07;;;;;;;1.08;0.98;;;10.20;99.90;;;;;;4942196;29;20409;-81
2024/02/15 07:33:35;;;;;;;0.30;0.30;;;10.20;99.90;;;;;;4924354;29;20043;-82
2024/02/15 07:36:01;;;;;;;0.30;0.30;;;10.30;99.90;;;;;;4948465;28;20054;-82
2024/02/15 07:38:27;;;;;;;1.38;1.08;;;10.20;99.90;;;;;;4921678;29;20047;-81
2024/02/15 07:40:53;;;;;;;1.90;1.58;;;10.30;99.90;;;;;;4948691;28;20035;-81
2024/02/15 07:43:20;;;;;;;1.33;1.27;;;10.30;99.90;;;;;;4922818;29;20043;-82
2024/02/15 07:45:49;;;;;;;1.05;0.95;;;10.30;99.90;;;;;;4954408;28;20413;-81
2024/02/15 07:48:15;;;;;;;1.27;1.13;;;10.30;99.90;;;;;;4936680;29;20047;-82
2024/02/15 07:50:43;;;;;;;0.90;0.68;;;10.40;99.90;;;;;;4920376;29;20043;-85
2024/02/15 07:53:11;;;;;;;1.65;0.38;;;10.40;99.90;;;;;;4940301;28;20473;-81
2024/02/15 07:55:37;;;;;;;0.30;0.30;;;10.40;99.90;;;;;;4932668;29;20042;-81
2024/02/15 07:58:04;;;;;;;10.05;1.65;;;10.40;99.90;;;;;;4942427;28;20461;-81
2024/02/15 08:00:31;;;;;;;0.32;0.32;;;10.50;99.90;;;;;;4915111;29;20481;-83
2024/02/15 08:02:58;;;;;;;3.38;0.98;;;10.50;99.90;;;;;;4945120;29;20032;-82
2024/02/15 08:05:24;;;;;;;0.20;0.20;;;10.60;99.90;;;;;;4941855;29;20473;-79
2024/02/15 08:07:50;;;;;;;0.25;0.25;;;10.60;99.90;;;;;;4910844;29;20070;-80
2024/02/15 08:10:17;;;;;;;0.32;0.30;;;10.60;99.90;;;;;;4930128;29;20052;-80
2024/02/15 08:12:44;;;;;;;1.08;0.70;;;10.60;99.90;;;;;;4936742;29;20078;-82
2024/02/15 08:15:11;;;;;;;0.75;0.52;;;10.70;99.90;;;;;;4948926;29;20047;-80
2024/02/15 08:17:48;;;;;;;0.52;0.50;;;10.70;99.90;;;;;;4932861;29;20095;-81
2024/02/15 08:20:15;;;;;;;0.30;0.30;;;10.70;99.90;;;;;;4937451;29;20043;-80
2024/02/15 08:22:43;;;;;;;0.40;0.40;;;10.70;99.90;;;;;;4922497;29;20044;-80
2024/02/15 08:25:11;;;;;;;1.20;1.05;;;10.80;99.90;;;;;;4939563;29;20039;-81
2024/02/15 08:27:40;;;;;;;1.30;0.95;;;10.90;99.90;;;;;;4934730;29;20039;-81
2024/02/15 08:30:11;;;;;;;0.57;0.43;;;10.90;99.90;;;;;;4939462;29;20035;-81
2024/02/15 08:32:39;;;;;;;;;;;11.00;99.90;;;;;;4937565;29;20055;-81
2024/02/15 08:35:09;;;;;;;3.38;0.95;;;11.10;99.90;;;;;;4917943;29;19911;-81
2024/02/15 08:37:37;;;;;;;0.88;0.70;;;11.10;99.90;;;;;;4918769;29;20120;-81
2024/02/15 08:40:10;;;;;;;0.55;0.30;;;11.20;99.90;;;;;;4936136;29;20137;-81
2024/02/15 08:42:43;;;;;;;0.30;0.30;;;11.30;99.90;;;;;;4936860;29;20472;-81
2024/02/15 08:45:10;;;;;;;1.25;1.05;;;11.50;99.90;;;;;;4931908;29;20051;-82
2024/02/15 08:47:41;;;;;;;5.05;1.15;;;11.70;85.60;;;;;;4934694;29;20059;-81
2024/02/15 08:50:11;;;;;;;0.32;0.32;;;11.90;53.30;;;;;;4948000;29;20038;-82
2024/02/15 08:52:39;;;;;;;0.50;0.50;;;12.10;10.50;;;;;;4920148;29;20059;-82
2024/02/15 08:55:10;;;;;;;0.50;0.50;;;12.50;1.00;;;;;;4896742;29;20285;-82
2024/02/15 08:57:40;;;;;;;1.00;0.52;;;12.70;1.00;;;;;;4915277;29;20043;-82
2024/02/15 09:00:13;;;;;;;0.70;0.50;;;12.80;1.00;;;;;;4920808;29;20114;-79
2024/02/15 09:02:40;;;;;;;0.20;0.20;;;13.00;1.00;;;;;;4950307;29;20042;-81
2024/02/15 09:05:07;;;;;;;0.55;0.55;;;13.20;99.90;;;;;;4916788;29;20417;-79
2024/02/15 09:07:33;;;;;;;1.40;1.30;;;13.30;99.90;;;;;;4935494;29;20035;-80
2024/02/15 09:09:59;;;;;;;1.55;0.77;;;13.40;99.90;;;;;;4926752;29;20474;-81
2024/02/15 09:12:25;;;;;;;0.30;0.30;;;13.60;99.90;;;;;;4936154;29;20052;-81
2024/02/15 09:14:52;;;;;;;0.68;0.43;;;13.70;99.90;;;;;;4936016;29;20573;-80
2024/02/15 09:17:18;;;;;;;0.57;0.55;;;13.80;99.90;;;;;;4944137;29;20042;-80
2024/02/15 09:19:49;;;;;;;0.55;0.40;;;13.80;99.90;;;;;;4938588;29;20043;-81
2024/02/15 09:22:15;;;;;;;1.45;0.57;;;13.90;99.90;;;;;;4927208;29;20051;-82
2024/02/15 09:24:42;;;;;;;0.80;0.65;;;13.80;99.90;;;;;;4941327;29;20028;-81
2024/02/15 09:27:11;;;;;;;0.30;0.25;;;13.80;99.90;;;;;;4935324;29;20592;-80
2024/02/15 09:29:40;;;;;;;4.68;0.63;;;13.90;99.90;;;;;;4927034;29;20055;-80
2024/02/15 09:32:07;;;;;;;0.80;0.65;;;14.00;99.90;;;;;;4949271;29;20043;-79
2024/02/15 09:34:33;;;;;;;0.63;0.63;;;14.20;99.90;;;;;;4945933;28;20031;-78
2024/02/15 09:36:59;;;;;;;0.20;0.20;;;14.30;48.20;;;;;;4932883;29;20063;-80
2024/02/15 09:39:25;;;;;;;1.13;0.50;;;14.40;22.40;;;;;;4912871;29;20051;-80
2024/02/15 09:41:58;;;;;;;2.72;0.93;;;14.50;20.10;;;;;;4907639;29;20070;-82
2024/02/15 09:44:29;;;;;;;0.43;0.43;;;14.50;37.70;;;;;;4932921;29;20039;-83
2024/02/15 09:47:05;;;;;;;0.30;0.30;;;14.50;1.00;;;;;;4933221;29;20050;-81
2024/02/15 09:49:36;;;;;;;0.20;0.20;;;14.50;1.00;;;;;;4925664;29;20058;-81
2024/02/15 09:52:04;;;;;;;0.70;0.70;;;14.40;43.20;;;;;;4932054;29;20036;-81
2024/02/15 09:54:31;;;;;;;3.63;0.50;;;14.50;1.00;;;;;;4911989;29;20491;-79
2024/02/15 09:57:00;;;;;;;1.55;1.13;;;14.50;1.00;;;;;;4912622;29;20036;-81
2024/02/15 09:59:27;;;;;;;0.32;0.32;;;14.40;1.00;;;;;;4943648;29;20078;-80
2024/02/15 10:01:58;;;;;;;0.30;0.30;;;14.40;1.00;;;;;;4910781;29;20370;-81
2024/02/15 10:04:25;;;;;;;0.10;0.10;;;14.40;1.00;;;;;;4934232;29;20066;-83
2024/02/15 10:06:52;;;;;;;0.45;0.45;;;14.30;1.00;;;;;;4927458;29;20047;-86
2024/02/15 10:09:30;;;;;;;0.73;0.73;;;14.40;1.00;;;;;;4932892;29;20373;-80
2024/02/15 10:11:58;;;;;;;0.30;0.30;;;14.40;1.00;;;;;;4942086;29;20055;-84
2024/02/15 10:14:25;;;;;;;1.08;0.52;;;14.40;1.00;;;;;;4946840;29;20035;-83
2024/02/15 10:16:54;;;;;;;0.57;0.35;;;14.30;1.00;;;;;;4915150;29;20051;-83
2024/02/15 10:19:27;;;;;;;0.38;0.32;;;14.30;1.00;;;;;;4920835;29;20051;-80
2024/02/15 10:21:57;;;;;;;0.10;0.10;;;14.40;1.00;;;;;;4919411;29;20050;-80
2024/02/15 10:24:24;;;;;;;0.30;0.30;;;14.40;1.00;;;;;;4935283;29;20055;-81
2024/02/15 10:26:51;;;;;;;1.25;1.15;;;14.40;1.00;;;;;;4934598;29;20050;-85
2024/02/15 10:29:19;;;;;;;0.65;0.65;;;14.50;1.00;;;;;;4930543;29;20035;-80
2024/02/15 10:31:58;;;;;;;0.20;0.10;;;14.60;1.00;;;;;;4948819;28;20031;-78
2024/02/15 10:34:28;;;;;;;0.73;0.43;;;14.70;99.90;;;;;;4919704;29;20428;-81
2024/02/15 10:36:58;;;;;;;0.40;0.22;;;14.80;99.90;;;;;;4945514;29;20032;-81
2024/02/15 10:39:24;;;;;;;0.30;0.30;;;14.70;99.90;;;;;;4946406;29;20485;-83
2024/02/15 10:41:52;;;;;;;0.10;0.10;;;14.70;99.90;;;;;;4923830;29;20047;-84
2024/02/15 10:44:22;;;;;;;0.30;0.30;;;14.70;99.90;;;;;;4945283;28;20373;-83
2024/02/15 10:46:53;;;;;;;0.10;0.10;;;14.70;99.90;;;;;;4928582;29;20043;-85
2024/02/15 10:49:22;;;;;;;0.30;0.22;;;14.70;99.90;;;;;;4938949;29;20047;-84
2024/02/15 10:51:56;;;;;;;0.10;0.10;;;14.60;99.90;;;;;;4945784;29;20039;-82
2024/02/15 10:54:47;;;;;;;0.10;0.10;;;14.80;99.90;;;;;;4920965;29;20059;-82
2024/02/15 10:57:16;;;;;;;0.13;0.13;;;14.80;99.90;;;;;;4934446;29;20054;-79
2024/02/15 11:00:10;;;;;;;0.50;0.50;;;14.80;99.90;;;;;;4921221;29;20050;-81
2024/02/15 11:02:50;;;;;;;0.10;0.10;;;14.80;99.90;;;;;;4949521;28;20345;-83
2024/02/15 11:05:21;;;;;;;0.50;0.50;;;14.90;99.90;;;;;;4945399;29;20035;-82
2024/02/15 11:07:47;;;;;;;0.10;0.10;;;14.80;99.90;;;;;;4932533;29;20035;-83
2024/02/15 11:10:16;;;;;;;0.80;0.43;;;14.80;99.90;;;;;;4939527;29;20274;-83
2024/02/15 11:12:43;;;;;;;0.10;0.10;;;14.90;99.90;;;;;;4921479;29;20074;-83
2024/02/15 11:15:11;;;;;;;1.30;0.80;;;14.90;99.90;;;;;;4955257;29;20039;-83
2024/02/15 11:17:43;;;;;;;0.10;0.10;;;15.00;99.90;;;;;;4943388;29;20035;-83
2024/02/15 11:20:11;;;;;;;0.10;0.10;;;15.10;99.90;;;;;;4921534;29;20051;-83
2024/02/15 11:22:38;;;;;;;1.58;0.20;;;15.20;99.90;;;;;;4947056;29;20047;-82
2024/02/15 11:25:11;;;;;;;0.10;0.10;;;15.30;99.90;;;;;;4949386;29;20027;-82
2024/02/15 11:27:39;;;;;;;0.20;0.20;;;15.50;99.90;;;;;;4924542;29;20049;-82
2024/02/15 11:30:09;;;;;;;0.10;0.10;;;15.70;99.90;;;;;;4952151;28;20039;-83
2024/02/15 11:32:39;;;;;;;0.30;0.30;;;15.70;99.90;;;;;;4944124;29;20048;-81
2024/02/15 11:35:13;;;;;;;0.40;0.40;;;15.80;99.90;;;;;;4917462;29;20046;-80
2024/02/15 11:37:58;;;;;;;1.30;0.35;;;15.90;99.90;;;;;;4919052;29;20043;-82
2024/02/15 11:40:28;;;;;;;0.17;0.17;;;16.10;99.90;;;;;;4933528;29;20396;-82
2024/02/15 11:43:04;;;;;;;0.10;0.10;;;16.20;96.20;;;;;;4938586;29;20043;-83
2024/02/15 11:45:37;;;;;;;0.30;0.30;;;16.10;75.30;;;;;;4950846;29;20071;-81
2024/02/15 11:48:07;;;;;;;0.10;0.10;;;16.10;58.60;;;;;;4914667;29;20369;-82
2024/02/15 11:50:37;;;;;;;0.20;0.20;;;16.00;56.10;;;;;;4921089;29;20058;-83
2024/02/15 11:53:08;;;;;;;0.10;0.10;;;16.10;84.20;;;;;;4932960;29;20046;-83
2024/02/15 11:55:37;;;;;;;0.20;0.20;;;16.00;61.20;;;;;;4921718;29;20044;-81
2024/02/15 12:20:00;;;;;;;0.10;0.10;;;16.00;24.00;;;;;;4945338;29;20050;-85
2024/02/15 12:22:33;;;;;;;0.20;0.20;;;16.00;1.00;;;;;;4922859;29;20386;-80
2024/02/15 12:25:01;;;;;;;0.17;0.17;;;16.00;1.00;;;;;;4911094;29;20043;-83
2024/02/15 12:27:30;;;;;;;0.20;0.20;;;16.00;1.00;;;;;;4905115;29;20044;-84
2024/02/15 12:29:57;;;;;;;0.43;0.40;;;16.00;1.00;;;;;;4920200;29;20055;-81
2024/02/15 12:32:27;;;;;;;0.90;0.63;;;15.90;1.00;;;;;;4932211;29;20055;-83
2024/02/15 12:35:16;;;;;;;0.45;0.40;;;16.00;1.00;;;;;;4936930;29;20043;-81
2024/02/15 12:37:43;;;;;;;0.52;0.43;;;16.00;1.00;;;;;;4931901;29;20472;-80
2024/02/15 12:40:17;;;;;;;0.40;0.40;;;16.10;1.00;;;;;;4945263;29;20031;-83
2024/02/15 12:42:44;;;;;;;1.55;0.55;;;16.10;1.00;;;;;;4945149;29;20465;-84
2024/02/15 12:45:21;;;;;;;0.52;0.52;;;16.10;9.70;;;;;;4936552;29;20035;-85
2024/02/15 12:47:51;;;;;;;0.10;0.10;;;16.20;1.00;;;;;;4937963;29;20469;-82
2024/02/15 12:50:19;;;;;;;;;;;16.30;1.00;;;;;;4948416;28;20035;-85
2024/02/15 12:52:49;;;;;;;0.10;0.10;;;16.30;1.00;;;;;;4935720;29;19921;-85
2024/02/15 12:55:19;;;;;;;0.10;0.10;;;16.20;1.00;;;;;;4907575;29;20048;-85
2024/02/15 12:57:51;;;;;;;0.20;0.20;;;16.30;1.00;;;;;;4936145;29;20039;-85
2024/02/15 13:00:28;;;;;;;0.25;0.25;;;16.30;1.00;;;;;;4936357;29;20050;-84
2024/02/15 13:02:55;;;;;;;0.10;0.10;;;16.30;1.00;;;;;;4927635;29;20040;-85
2024/02/15 13:05:24;;;;;;;0.30;0.30;;;16.30;1.00;;;;;;4919741;29;20048;-85
2024/02/15 13:07:51;;;;;;;0.32;0.32;;;16.30;1.00;;;;;;4923448;29;20101;-86
2024/02/15 13:10:18;;;;;;;1.42;1.33;;;16.30;1.00;;;;;;4935498;29;20040;-85
2024/02/15 13:12:46;;;;;;;0.20;0.20;;;16.20;1.00;;;;;;4938017;29;20047;-83
2024/02/15 13:15:21;;;;;;;0.20;0.20;;;16.20;1.00;;;;;;4929898;29;20039;-82
2024/02/15 13:17:50;;;;;;;0.10;0.10;;;16.20;1.00;;;;;;4935110;29;20054;-83
2024/02/15 13:20:20;;;;;;;0.20;0.20;;;16.20;1.00;;;;;;4922406;29;20046;-84
2024/02/15 13:22:49;;;;;;;0.10;0.10;;;16.10;1.00;;;;;;4942277;29;20043;-85
2024/02/15 13:25:16;;;;;;;0.13;0.13;;;16.10;1.00;;;;;;4941834;29;20036;-84
2024/02/15 13:27:46;;;;;;;0.20;0.20;;;16.10;1.00;;;;;;4930741;29;20047;-83
2024/02/15 13:30:12;;;;;;;0.30;0.30;;;16.20;1.00;;;;;;4934620;29;20135;-84
2024/02/15 13:32:43;;;;;;;0.15;0.15;;;16.10;1.00;;;;;;4947191;29;20462;-84
2024/02/15 13:35:13;;;;;;;0.80;0.80;;;16.10;1.00;;;;;;4937354;29;20354;-84
2024/02/15 13:37:42;;;;;;;3.80;1.40;;;16.10;1.00;;;;;;4938342;29;20048;-82